createdAt,value
2023-02-15T00:00:18.875Z,11.47
2023-02-15T00:02:46.883Z,11.47
2023-02-15T00:05:15.126Z,11.48
2023-02-15T00:07:43.161Z,11.48
2023-02-15T00:10:13.063Z,11.48
2023-02-15T00:12:42.427Z,11.47
2023-02-15T00:15:12.458Z,11.47
2023-02-15T00:17:40.561Z,11.48
2023-02-15T00:20:09.837Z,11.51
2023-02-15T00:22:37.871Z,11.52
2023-02-15T00:25:06.657Z,11.54
2023-02-15T00:27:35.770Z,11.53
2023-02-15T00:30:06.803Z,11.56
2023-02-15T00:32:34.797Z,11.56
2023-02-15T00:35:02.933Z,11.56
2023-02-15T00:37:30.884Z,11.57
2023-02-15T00:39:59.089Z,11.57
2023-02-15T00:42:27.121Z,11.60
2023-02-15T00:44:55.314Z,11.63
2023-02-15T00:47:27.566Z,11.63
2023-02-15T00:49:55.562Z,11.61
2023-02-15T00:52:23.596Z,11.65
2023-02-15T00:54:51.781Z,11.65
2023-02-15T00:57:19.945Z,11.67
2023-02-15T00:59:47.888Z,11.65
2023-02-15T01:02:16.139Z,11.63
2023-02-15T01:04:45.961Z,11.62
2023-02-15T01:07:13.895Z,11.63
2023-02-15T01:09:41.882Z,11.62
2023-02-15T01:12:09.946Z,11.62
2023-02-15T01:14:37.966Z,11.59
2023-02-15T01:17:06.010Z,11.59
2023-02-15T01:19:35.290Z,11.60
2023-02-15T01:22:04.813Z,11.56
2023-02-15T01:24:33.034Z,11.58
2023-02-15T01:27:01.037Z,11.56
2023-02-15T01:29:29.006Z,11.58
2023-02-15T01:31:57.123Z,11.57
2023-02-15T01:34:27.364Z,11.58
2023-02-15T01:36:55.323Z,11.59
2023-02-15T01:39:25.061Z,11.59
2023-02-15T01:41:55.217Z,11.62
2023-02-15T01:44:53.676Z,11.63
2023-02-15T01:50:02.529Z,11.66
2023-02-15T01:52:31.966Z,11.66
2023-02-15T01:55:01.448Z,11.68
2023-02-15T01:57:30.704Z,11.67
2023-02-15T02:00:03.820Z,11.67
2023-02-15T02:02:32.723Z,11.71
2023-02-15T02:05:04.227Z,11.68
2023-02-15T02:07:36.326Z,11.71
2023-02-15T02:10:07.570Z,11.69
2023-02-15T02:12:38.069Z,11.69
2023-02-15T02:15:07.046Z,11.68
2023-02-15T02:17:44.549Z,11.69
2023-02-15T02:20:45.200Z,11.68
2023-02-15T02:23:30.654Z,11.63
2023-02-15T02:26:38.572Z,11.63
2023-02-15T02:29:39.086Z,11.57
2023-02-15T02:32:36.437Z,11.58
2023-02-15T02:35:13.704Z,11.56
2023-02-15T02:37:50.773Z,11.57
2023-02-15T02:40:27.248Z,11.57
2023-02-15T02:43:01.827Z,11.58
2023-02-15T02:45:36.653Z,11.59
2023-02-15T02:48:10.205Z,11.60
2023-02-15T02:50:42.873Z,11.60
2023-02-15T02:53:11.773Z,11.60
2023-02-15T02:55:44.482Z,11.60
2023-02-15T02:58:18.068Z,11.58
2023-02-15T03:00:50.934Z,11.58
2023-02-15T03:03:27.819Z,11.57
2023-02-15T03:06:00.920Z,11.57
2023-02-15T03:08:35.296Z,11.57
2023-02-15T03:11:04.739Z,11.56
2023-02-15T03:13:34.335Z,11.57
2023-02-15T03:16:22.677Z,11.57
2023-02-15T03:18:58.218Z,11.56
2023-02-15T03:21:33.530Z,11.55
2023-02-15T03:24:06.997Z,11.56
2023-02-15T03:26:36.708Z,11.54
2023-02-15T03:29:07.320Z,11.55
2023-02-15T03:31:40.439Z,11.56
2023-02-15T03:34:12.820Z,11.52
2023-02-15T03:36:48.739Z,11.52
2023-02-15T03:39:22.946Z,11.52
2023-02-15T03:41:58.766Z,11.53
2023-02-15T03:44:31.371Z,11.54
2023-02-15T03:47:06.683Z,11.53
2023-02-15T03:49:41.529Z,11.52
2023-02-15T03:52:13.230Z,11.53
2023-02-15T03:54:47.062Z,11.53
2023-02-15T03:57:35.999Z,11.53
2023-02-15T04:00:24.747Z,11.49
2023-02-15T04:03:22.844Z,11.51
2023-02-15T04:05:51.158Z,11.51
2023-02-15T04:08:20.599Z,11.54
2023-02-15T04:10:53.469Z,11.60
2023-02-15T04:13:21.539Z,11.68
2023-02-15T04:16:07.796Z,11.75
2023-02-15T04:18:55.216Z,11.85
2023-02-15T04:21:42.580Z,11.92
2023-02-15T04:24:29.833Z,12.00
2023-02-15T04:26:58.221Z,12.11
2023-02-15T04:29:27.579Z,12.23
2023-02-15T04:31:57.517Z,12.33
2023-02-15T04:34:25.822Z,12.43
2023-02-15T04:36:53.997Z,12.50
2023-02-15T04:39:23.520Z,12.53
2023-02-15T04:41:51.579Z,12.57
2023-02-15T04:44:19.676Z,12.62
2023-02-15T04:46:47.672Z,12.63
2023-02-15T04:49:15.692Z,12.66
2023-02-15T04:51:43.653Z,12.66
2023-02-15T04:54:11.643Z,12.66
2023-02-15T04:56:41.871Z,12.61
2023-02-15T04:59:12.308Z,12.56
2023-02-15T05:01:40.396Z,12.53
2023-02-15T05:04:08.417Z,12.48
2023-02-15T05:06:36.821Z,12.43
2023-02-15T05:09:04.960Z,12.39
2023-02-15T05:11:33.069Z,12.34
2023-02-15T05:14:02.434Z,12.32
2023-02-15T05:16:32.633Z,12.30
2023-02-15T05:19:00.751Z,12.30
2023-02-15T05:21:28.761Z,12.28
2023-02-15T05:23:56.723Z,12.22
2023-02-15T05:26:43.542Z,12.21
2023-02-15T05:29:13.266Z,12.17
2023-02-15T05:31:41.606Z,12.16
2023-02-15T05:34:09.807Z,12.15
2023-02-15T05:36:37.860Z,12.15
2023-02-15T05:39:07.010Z,12.16
2023-02-15T05:41:35.040Z,12.15
2023-02-15T05:44:03.078Z,12.13
2023-02-15T05:46:33.053Z,12.08
2023-02-15T05:49:01.076Z,12.08
2023-02-15T05:51:29.236Z,12.07
2023-02-15T05:53:57.276Z,12.08
2023-02-15T05:56:25.348Z,12.05
2023-02-15T05:58:55.444Z,12.05
2023-02-15T06:01:24.069Z,12.06
2023-02-15T06:03:55.137Z,12.06
2023-02-15T06:06:23.371Z,12.04
2023-02-15T06:08:51.366Z,12.03
2023-02-15T06:11:19.301Z,12.03
2023-02-15T06:13:47.395Z,12.00
2023-02-15T06:16:16.923Z,11.99
2023-02-15T06:18:45.219Z,11.98
2023-02-15T06:21:15.268Z,11.96
2023-02-15T06:23:44.144Z,11.95
2023-02-15T06:26:12.065Z,11.94
2023-02-15T06:28:42.152Z,11.93
2023-02-15T06:31:10.496Z,11.91
2023-02-15T06:33:39.305Z,11.91
2023-02-15T06:36:07.485Z,11.91
2023-02-15T06:38:37.007Z,11.88
2023-02-15T06:41:05.018Z,11.90
2023-02-15T06:43:33.154Z,11.88
2023-02-15T06:46:01.490Z,11.85
2023-02-15T06:48:29.783Z,11.84
2023-02-15T06:50:58.055Z,11.82
2023-02-15T06:53:25.995Z,11.81
2023-02-15T06:55:55.452Z,11.79
2023-02-15T06:58:23.483Z,11.78
2023-02-15T07:00:53.565Z,11.75
2023-02-15T07:03:21.617Z,11.75
2023-02-15T07:05:50.218Z,11.74
2023-02-15T07:08:21.388Z,11.72
2023-02-15T07:10:51.183Z,11.73
2023-02-15T07:13:20.198Z,11.73
2023-02-15T07:15:49.259Z,11.73
2023-02-15T07:18:17.352Z,11.75
2023-02-15T07:20:45.517Z,11.76
2023-02-15T07:23:13.598Z,11.77
2023-02-15T07:25:41.662Z,11.78
2023-02-15T07:28:10.797Z,11.78
2023-02-15T07:30:41.423Z,11.78
2023-02-15T07:33:28.211Z,11.79
2023-02-15T07:36:02.295Z,11.80
2023-02-15T07:38:33.092Z,11.83
2023-02-15T07:41:02.084Z,11.86
2023-02-15T07:43:31.470Z,11.89
2023-02-15T07:46:03.658Z,11.97
2023-02-15T07:48:31.926Z,11.99
2023-02-15T07:51:01.814Z,12.07
2023-02-15T07:53:30.166Z,12.14
2023-02-15T07:56:01.431Z,12.22
2023-02-15T07:58:43.651Z,12.27
2023-02-15T08:01:13.387Z,12.37
2023-02-15T08:03:41.920Z,12.45
2023-02-15T08:06:10.817Z,12.51
2023-02-15T08:08:38.925Z,12.55
2023-02-15T08:11:26.650Z,12.59
2023-02-15T08:13:57.372Z,12.64
2023-02-15T08:16:28.376Z,12.71
2023-02-15T08:18:57.932Z,12.75
2023-02-15T08:21:29.171Z,12.81
2023-02-15T08:23:58.189Z,12.85
2023-02-15T08:26:28.172Z,12.91
2023-02-15T08:28:56.474Z,12.95
2023-02-15T08:31:25.811Z,12.96
2023-02-15T08:33:57.229Z,12.97
2023-02-15T08:36:28.169Z,12.94
2023-02-15T08:38:56.268Z,12.94
2023-02-15T08:41:26.055Z,12.93
2023-02-15T08:43:55.940Z,12.93
2023-02-15T08:46:25.792Z,12.95
2023-02-15T08:48:55.773Z,12.96
2023-02-15T08:51:25.532Z,12.97
2023-02-15T08:53:55.490Z,13.00
2023-02-15T08:56:27.004Z,13.05
2023-02-15T08:58:55.521Z,13.10
2023-02-15T09:01:26.955Z,13.18
2023-02-15T09:03:58.534Z,13.25
2023-02-15T09:06:27.538Z,13.34
2023-02-15T09:08:56.016Z,13.41
2023-02-15T09:11:26.220Z,13.47
2023-02-15T09:13:56.500Z,13.53
2023-02-15T09:16:26.150Z,13.65
2023-02-15T09:18:54.855Z,13.77
2023-02-15T09:21:25.590Z,13.90
2023-02-15T09:23:58.787Z,14.10
2023-02-15T09:26:27.784Z,14.23
2023-02-15T09:28:57.753Z,14.37
2023-02-15T09:31:28.231Z,14.44
2023-02-15T09:33:57.088Z,14.57
2023-02-15T09:36:28.428Z,14.67
2023-02-15T09:38:59.501Z,14.74
2023-02-15T09:41:43.932Z,14.79
2023-02-15T09:44:26.727Z,14.85
2023-02-15T09:47:16.381Z,14.93
2023-02-15T09:49:56.247Z,14.99
2023-02-15T09:52:36.886Z,15.04
2023-02-15T09:55:27.183Z,15.12
2023-02-15T09:58:06.354Z,15.19
2023-02-15T10:00:42.652Z,15.29
2023-02-15T10:03:26.682Z,15.35
2023-02-15T10:06:08.046Z,15.42
2023-02-15T10:08:59.512Z,15.52
2023-02-15T10:11:42.620Z,15.60
2023-02-15T10:14:38.923Z,15.69
2023-02-15T10:17:22.698Z,15.80
2023-02-15T10:20:06.036Z,15.92
2023-02-15T10:22:44.789Z,16.00
2023-02-15T10:25:30.819Z,16.07
2023-02-15T10:28:05.576Z,16.11
2023-02-15T10:30:42.526Z,16.10
2023-02-15T10:33:22.533Z,16.13
2023-02-15T10:36:04.128Z,16.11
2023-02-15T10:38:42.455Z,16.09
2023-02-15T10:41:26.260Z,16.04
2023-02-15T10:44:12.188Z,16.01
2023-02-15T10:47:02.619Z,15.99
2023-02-15T10:49:55.734Z,15.93
2023-02-15T10:52:36.312Z,15.92
2023-02-15T10:55:16.094Z,15.84
2023-02-15T10:57:56.303Z,15.82
2023-02-15T11:00:32.334Z,15.76
2023-02-15T11:03:23.348Z,15.76
2023-02-15T11:06:00.953Z,15.77
2023-02-15T11:08:33.702Z,15.81
2023-02-15T11:11:06.291Z,15.81
2023-02-15T11:13:40.531Z,15.78
2023-02-15T11:16:18.285Z,15.79
2023-02-15T11:18:54.369Z,15.75
2023-02-15T11:21:26.883Z,15.81
2023-02-15T11:23:55.791Z,15.83
2023-02-15T11:26:31.114Z,15.87
2023-02-15T11:29:07.584Z,15.86
2023-02-15T11:31:45.847Z,15.83
2023-02-15T11:34:21.390Z,15.77
2023-02-15T11:36:53.339Z,15.51
2023-02-15T11:39:24.225Z,15.32
2023-02-15T11:41:55.978Z,15.13
2023-02-15T11:44:30.151Z,14.97
2023-02-15T11:46:58.736Z,14.83
2023-02-15T11:49:31.840Z,14.74
2023-02-15T11:52:01.997Z,14.57
2023-02-15T11:54:33.378Z,14.52
2023-02-15T11:57:13.779Z,14.44
2023-02-15T11:59:48.721Z,14.36
2023-02-15T12:02:19.531Z,14.26
2023-02-15T12:04:53.432Z,14.17
2023-02-15T12:07:27.669Z,14.12
2023-02-15T12:10:03.323Z,14.06
2023-02-15T12:12:33.154Z,14.04
2023-02-15T12:15:04.183Z,14.05
2023-02-15T12:17:35.120Z,14.06
2023-02-15T12:20:06.773Z,14.03
2023-02-15T12:22:38.232Z,14.07
2023-02-15T12:25:22.713Z,14.02
2023-02-15T12:27:51.490Z,14.00
2023-02-15T12:30:24.221Z,13.98
2023-02-15T12:32:56.096Z,13.94
2023-02-15T12:35:31.040Z,13.95
2023-02-15T12:38:02.619Z,13.96
2023-02-15T12:40:31.719Z,14.02
2023-02-15T12:42:59.973Z,14.02
2023-02-15T12:45:31.135Z,14.05
2023-02-15T12:48:18.232Z,14.05
2023-02-15T12:50:47.503Z,14.09
2023-02-15T12:53:20.142Z,14.17
2023-02-15T12:55:59.230Z,14.14
2023-02-15T12:58:29.160Z,14.15
2023-02-15T13:01:16.575Z,14.16
2023-02-15T13:03:59.804Z,14.20
2023-02-15T13:06:28.927Z,14.25
2023-02-15T13:08:59.804Z,14.25
2023-02-15T13:11:35.109Z,14.27
2023-02-15T13:14:05.137Z,14.32
2023-02-15T13:16:37.640Z,14.34
2023-02-15T13:19:13.045Z,14.37
2023-02-15T13:21:44.865Z,14.43
2023-02-15T13:24:20.527Z,14.49
2023-02-15T13:26:49.794Z,14.57
2023-02-15T13:29:23.701Z,14.64
2023-02-15T13:31:55.095Z,14.74
2023-02-15T13:34:27.801Z,14.83
2023-02-15T13:37:03.586Z,14.84
2023-02-15T13:39:41.642Z,14.78
2023-02-15T13:42:24.351Z,14.70
2023-02-15T13:45:16.626Z,14.67
2023-02-15T13:47:54.311Z,14.66
2023-02-15T13:50:37.212Z,14.70
2023-02-15T13:53:21.891Z,14.77
2023-02-15T13:55:53.911Z,14.96
2023-02-15T13:58:53.141Z,15.09
2023-02-15T14:01:30.916Z,15.20
2023-02-15T14:04:37.458Z,15.30
2023-02-15T14:07:19.043Z,15.45
2023-02-15T14:09:55.237Z,15.55
2023-02-15T14:12:39.467Z,15.52
2023-02-15T14:15:23.937Z,15.55
2023-02-15T14:18:02.724Z,15.63
2023-02-15T14:20:41.930Z,15.80
2023-02-15T14:23:28.607Z,15.97
2023-02-15T14:25:59.707Z,16.10
2023-02-15T14:28:36.073Z,16.16
2023-02-15T14:31:07.707Z,16.07
2023-02-15T14:33:41.042Z,16.06
2023-02-15T14:36:11.503Z,15.98
2023-02-15T14:38:58.094Z,16.04
2023-02-15T14:41:30.208Z,16.13
2023-02-15T14:44:04.245Z,16.35
2023-02-15T14:46:41.074Z,16.67
2023-02-15T14:49:13.993Z,16.71
2023-02-15T14:51:57.923Z,17.19
2023-02-15T14:55:09.076Z,18.14
2023-02-15T14:57:37.486Z,18.27
2023-02-15T15:00:41.316Z,18.06
2023-02-15T15:03:22.297Z,17.85
2023-02-15T15:05:53.760Z,17.80
2023-02-15T15:08:31.157Z,17.83
2023-02-15T15:11:43.691Z,18.00
2023-02-15T15:14:13.593Z,18.12
2023-02-15T15:16:53.330Z,18.43
2023-02-15T15:20:09.459Z,18.77
2023-02-15T15:22:38.573Z,18.94
2023-02-15T15:25:12.330Z,18.93
2023-02-15T15:27:48.708Z,18.94
2023-02-15T15:31:01.042Z,18.73
2023-02-15T15:34:04.579Z,18.33
2023-02-15T15:37:11.767Z,17.87
2023-02-15T15:40:22.601Z,17.52
2023-02-15T15:43:18.946Z,17.31
2023-02-15T15:46:04.706Z,17.12
2023-02-15T15:48:35.705Z,16.88
2023-02-15T15:51:08.842Z,16.68
2023-02-15T15:53:43.384Z,16.47
2023-02-15T15:56:17.114Z,16.29
2023-02-15T15:58:52.399Z,16.14
2023-02-15T16:01:27.380Z,16.11
2023-02-15T16:03:57.477Z,16.02
2023-02-15T16:06:34.653Z,15.98
2023-02-15T16:09:13.983Z,15.98
2023-02-15T16:11:42.634Z,16.06
2023-02-15T16:14:18.144Z,16.05
2023-02-15T16:16:52.922Z,16.10
2023-02-15T16:19:24.601Z,16.14
2023-02-15T16:21:52.621Z,16.07
2023-02-15T16:24:34.840Z,15.99
2023-02-15T16:27:26.807Z,15.85
2023-02-15T16:29:56.325Z,15.79
2023-02-15T16:32:25.672Z,15.67
2023-02-15T16:34:55.693Z,15.52
2023-02-15T16:37:28.541Z,15.40
2023-02-15T16:39:57.559Z,15.29
2023-02-15T16:42:26.285Z,15.13
2023-02-15T16:45:01.374Z,15.04
2023-02-15T16:47:32.774Z,14.99
2023-02-15T16:50:05.063Z,14.91
2023-02-15T16:52:33.332Z,14.86
2023-02-15T16:55:04.419Z,14.85
2023-02-15T16:57:36.937Z,14.79
2023-02-15T17:00:11.212Z,14.78
2023-02-15T17:02:55.567Z,14.79
2023-02-15T17:05:24.949Z,14.79
2023-02-15T17:08:07.828Z,14.77
2023-02-15T17:10:38.313Z,14.76
2023-02-15T17:13:12.657Z,14.74
2023-02-15T17:15:43.858Z,14.71
2023-02-15T17:18:18.831Z,14.63
2023-02-15T17:20:48.399Z,14.60
2023-02-15T17:23:27.810Z,14.50
2023-02-15T17:25:56.452Z,14.46
2023-02-15T17:28:28.002Z,14.40
2023-02-15T17:30:59.365Z,14.37
2023-02-15T17:33:37.771Z,14.30
2023-02-15T17:36:11.308Z,14.21
2023-02-15T17:38:41.666Z,14.15
2023-02-15T17:41:09.897Z,14.11
2023-02-15T17:43:37.850Z,14.03
2023-02-15T17:46:07.543Z,13.98
2023-02-15T17:48:39.466Z,13.93
2023-02-15T17:51:13.760Z,13.86
2023-02-15T17:53:41.937Z,13.84
2023-02-15T17:56:10.715Z,13.77
2023-02-15T17:58:39.432Z,13.71
2023-02-15T18:01:33.784Z,13.67
2023-02-15T18:04:19.132Z,13.59
2023-02-15T18:07:04.308Z,13.52
2023-02-15T18:09:49.658Z,13.45
2023-02-15T18:12:22.604Z,13.38
2023-02-15T18:14:50.936Z,13.34
2023-02-15T18:17:20.718Z,13.32
2023-02-15T18:22:47.440Z,13.25
2023-02-15T18:25:30.786Z,13.21
2023-02-15T18:27:58.866Z,13.15
2023-02-15T18:30:27.557Z,13.12
2023-02-15T18:33:05.528Z,13.08
2023-02-15T18:35:34.383Z,13.04
2023-02-15T18:38:03.012Z,13.02
2023-02-15T18:40:37.221Z,12.96
2023-02-15T18:43:06.442Z,12.91
2023-02-15T18:45:36.275Z,12.87
2023-02-15T18:48:21.481Z,12.82
2023-02-15T18:50:49.454Z,12.77
2023-02-15T18:53:20.973Z,12.73
2023-02-15T18:55:49.770Z,12.70
2023-02-15T18:58:20.033Z,12.69
2023-02-15T19:00:48.480Z,12.70
2023-02-15T19:03:18.212Z,12.69
2023-02-15T19:05:49.061Z,12.69
2023-02-15T19:08:22.034Z,12.69
2023-02-15T19:10:50.159Z,12.69
2023-02-15T19:13:18.746Z,12.69
2023-02-15T19:15:46.892Z,12.69
2023-02-15T19:18:15.659Z,12.71
2023-02-15T19:20:46.444Z,12.72
2023-02-15T19:23:20.175Z,12.74
2023-02-15T19:25:49.614Z,12.77
2023-02-15T19:28:22.837Z,12.83
2023-02-15T19:30:50.901Z,12.87
2023-02-15T19:33:23.824Z,12.92
2023-02-15T19:35:57.178Z,12.97
2023-02-15T19:38:32.180Z,13.02
2023-02-15T19:41:04.201Z,13.07
2023-02-15T19:43:32.489Z,13.11
2023-02-15T19:46:00.692Z,13.15
2023-02-15T19:48:28.802Z,13.20
2023-02-15T19:50:57.012Z,13.22
2023-02-15T19:53:28.778Z,13.24
2023-02-15T19:55:56.860Z,13.27
2023-02-15T19:58:25.729Z,13.30
2023-02-15T20:00:53.784Z,13.34
2023-02-15T20:03:22.156Z,13.38
2023-02-15T20:05:50.356Z,13.40
2023-02-15T20:08:20.717Z,13.44
2023-02-15T20:10:50.388Z,13.47
2023-02-15T20:13:20.698Z,13.50
2023-02-15T20:15:49.322Z,13.51
2023-02-15T20:18:17.403Z,13.52
2023-02-15T20:20:49.145Z,13.54
2023-02-15T20:23:22.373Z,13.55
2023-02-15T20:25:52.492Z,13.57
2023-02-15T20:28:22.232Z,13.59
2023-02-15T20:30:51.165Z,13.60
2023-02-15T20:33:20.635Z,13.63
2023-02-15T20:35:49.722Z,13.66
2023-02-15T20:38:21.621Z,13.68
2023-02-15T20:41:08.757Z,13.65
2023-02-15T20:43:37.324Z,13.64
2023-02-15T20:46:07.674Z,13.64
2023-02-15T20:48:36.363Z,13.65
2023-02-15T20:51:04.952Z,13.65
2023-02-15T20:53:33.209Z,13.65
2023-02-15T20:56:02.948Z,13.65
2023-02-15T20:58:32.145Z,13.65
2023-02-15T21:01:00.937Z,13.64
2023-02-15T21:03:31.300Z,13.67
2023-02-15T21:05:59.980Z,13.67
2023-02-15T21:08:28.379Z,13.64
2023-02-15T21:10:56.418Z,13.63
2023-02-15T21:13:28.454Z,13.65
2023-02-15T21:15:57.032Z,13.64
2023-02-15T21:18:26.872Z,13.63
2023-02-15T21:20:59.493Z,13.67
2023-02-15T21:23:30.533Z,13.67
2023-02-15T21:25:58.745Z,13.69
2023-02-15T21:28:30.104Z,13.69
2023-02-15T21:30:59.501Z,13.70
2023-02-15T21:33:28.441Z,13.68
2023-02-15T21:35:59.273Z,13.66
2023-02-15T21:38:31.416Z,13.67
2023-02-15T21:41:19.374Z,13.67
2023-02-15T21:44:06.293Z,13.68
2023-02-15T21:46:51.545Z,13.67
2023-02-15T21:49:19.680Z,13.69
2023-02-15T21:52:05.118Z,13.71
2023-02-15T21:54:33.126Z,13.69
2023-02-15T21:57:01.123Z,13.70
2023-02-15T21:59:30.642Z,13.70
2023-02-15T22:01:59.231Z,13.70
2023-02-15T22:04:29.574Z,13.70
2023-02-15T22:06:57.938Z,13.72
2023-02-15T22:09:28.020Z,13.71
2023-02-15T22:11:56.733Z,13.72
2023-02-15T22:14:39.123Z,13.73
2023-02-15T22:17:16.088Z,13.73
2023-02-15T22:19:44.538Z,13.75
2023-02-15T22:22:12.685Z,13.71
2023-02-15T22:24:40.805Z,13.70
2023-02-15T22:27:15.721Z,13.71
2023-02-15T22:29:45.282Z,13.73
2023-02-15T22:32:18.690Z,13.72
2023-02-15T22:34:47.416Z,13.75
2023-02-15T22:37:15.883Z,13.78
2023-02-15T22:39:44.191Z,13.80
2023-02-15T22:42:25.304Z,13.81
2023-02-15T22:44:56.678Z,13.82
2023-02-15T22:47:26.731Z,13.86
2023-02-15T22:49:55.653Z,13.87
2023-02-15T22:52:23.700Z,13.88
2023-02-15T22:54:51.707Z,13.87
2023-02-15T22:57:23.961Z,13.93
2023-02-15T22:59:59.435Z,13.93
2023-02-15T23:02:29.924Z,13.94
2023-02-15T23:05:00.202Z,13.98
2023-02-15T23:07:31.341Z,13.98
2023-02-15T23:09:59.291Z,13.98
2023-02-15T23:12:56.620Z,14.00
2023-02-15T23:15:29.093Z,14.01
2023-02-15T23:18:03.170Z,14.03
2023-02-15T23:20:47.213Z,14.01
2023-02-15T23:23:16.596Z,14.00
2023-02-15T23:25:46.272Z,14.02
2023-02-15T23:28:20.004Z,13.99
2023-02-15T23:30:52.119Z,14.01
2023-02-15T23:33:26.238Z,13.99
2023-02-15T23:36:00.416Z,14.00
2023-02-15T23:38:30.565Z,13.98
2023-02-15T23:41:22.481Z,14.00
2023-02-15T23:43:59.003Z,13.97
2023-02-15T23:46:48.769Z,13.97
2023-02-15T23:49:18.654Z,14.01
2023-02-15T23:51:49.105Z,14.03
2023-02-15T23:54:19.114Z,14.02
2023-02-15T23:56:50.888Z,14.04
2023-02-15T23:59:22.510Z,14.02
